SHT22A EGLL-EGJB
Flight info
| Callsign | SHT22A |
|---|---|
| Flight time | 0h 33m |
| Altitude | 21000 |
| Route | GASGU N866 SAM/N0376F200 N63 LELNA |
| Aircraft | A320/M-SDE3FGIJ1KRWXY/SB1 |
Departure
| Time | 2026-04-22 20:38 |
|---|---|
| Airport | London Heathrow Airport (EGLL) |
Arrival
| Time | 2026-04-22 21:11 |
|---|---|
| Airport | Guernsey Airport (EGJB) |
| Time | Latitude | Longitude | Altitude | Speed | Heading |
|---|---|---|---|---|---|
| 2026-04-22 20:22 | 51.46931 | -0.48715 | 89 ft | 0 kts | 359° |
| 2026-04-22 20:31 | 51.46920 | -0.48715 | 86 ft | 4 kts | 359° |
| 2026-04-22 20:31 | 51.46893 | -0.48715 | 88 ft | 4 kts | 355° |
| 2026-04-22 20:31 | 51.46877 | -0.48701 | 87 ft | 4 kts | 277° |
| 2026-04-22 20:32 | 51.46877 | -0.48668 | 86 ft | 3 kts | 269° |
| 2026-04-22 20:32 | 51.46877 | -0.48662 | 86 ft | 0 kts | 269° |
| 2026-04-22 20:35 | 51.46877 | -0.48668 | 86 ft | 2 kts | 270° |
| 2026-04-22 20:35 | 51.46876 | -0.48705 | 88 ft | 5 kts | 264° |
| 2026-04-22 20:35 | 51.46846 | -0.48743 | 87 ft | 7 kts | 194° |
| 2026-04-22 20:35 | 51.46787 | -0.48750 | 86 ft | 10 kts | 181° |
| 2026-04-22 20:36 | 51.46709 | -0.48747 | 86 ft | 6 kts | 178° |
| 2026-04-22 20:36 | 51.46653 | -0.48744 | 86 ft | 10 kts | 180° |
| 2026-04-22 20:36 | 51.46590 | -0.48769 | 87 ft | 6 kts | 199° |
| 2026-04-22 20:36 | 51.46542 | -0.48792 | 88 ft | 9 kts | 187° |
| 2026-04-22 20:37 | 51.46488 | -0.48731 | 86 ft | 11 kts | 117° |
| 2026-04-22 20:37 | 51.46480 | -0.48590 | 86 ft | 15 kts | 89° |
| 2026-04-22 20:37 | 51.46481 | -0.48163 | 88 ft | 73 kts | 90° |
| 2026-04-22 20:37 | 51.46482 | -0.47010 | 88 ft | 130 kts | 90° |
| 2026-04-22 20:38 | 51.46484 | -0.45348 | 331 ft | 157 kts | 89° |
| 2026-04-22 20:38 | 51.46469 | -0.43606 | 1105 ft | 156 kts | 89° |
| 2026-04-22 20:38 | 51.46426 | -0.41840 | 1697 ft | 167 kts | 97° |
| 2026-04-22 20:38 | 51.45953 | -0.39987 | 2112 ft | 195 kts | 120° |
| 2026-04-22 20:39 | 51.45139 | -0.38112 | 2617 ft | 220 kts | 123° |
| 2026-04-22 20:39 | 51.44198 | -0.36044 | 3480 ft | 231 kts | 124° |
| 2026-04-22 20:39 | 51.43078 | -0.34147 | 4393 ft | 241 kts | 142° |
| 2026-04-22 20:39 | 51.41549 | -0.32994 | 5292 ft | 253 kts | 164° |
| 2026-04-22 20:40 | 51.39764 | -0.32844 | 6205 ft | 264 kts | 186° |
| 2026-04-22 20:40 | 51.38025 | -0.33899 | 7142 ft | 275 kts | 211° |
| 2026-04-22 20:40 | 51.36549 | -0.35897 | 8066 ft | 280 kts | 219° |
| 2026-04-22 20:40 | 51.35100 | -0.38015 | 8979 ft | 284 kts | 219° |
| 2026-04-22 20:41 | 51.33632 | -0.40168 | 9896 ft | 288 kts | 219° |
| 2026-04-22 20:41 | 51.32140 | -0.42365 | 10598 ft | 299 kts | 221° |
| 2026-04-22 20:41 | 51.30951 | -0.45264 | 10872 ft | 330 kts | 246° |
| 2026-04-22 20:41 | 51.30165 | -0.48839 | 11269 ft | 347 kts | 247° |
| 2026-04-22 20:42 | 51.29328 | -0.52496 | 11952 ft | 353 kts | 248° |
| 2026-04-22 20:42 | 51.28507 | -0.56221 | 12705 ft | 358 kts | 249° |
| 2026-04-22 20:42 | 51.27716 | -0.60011 | 13456 ft | 362 kts | 249° |
| 2026-04-22 20:42 | 51.26938 | -0.63863 | 14195 ft | 366 kts | 250° |
| 2026-04-22 20:43 | 51.26175 | -0.67760 | 14864 ft | 369 kts | 251° |
| 2026-04-22 20:43 | 51.25415 | -0.71692 | 15538 ft | 372 kts | 251° |
| 2026-04-22 20:43 | 51.24647 | -0.75660 | 16202 ft | 376 kts | 251° |
| 2026-04-22 20:43 | 51.23880 | -0.79608 | 16840 ft | 379 kts | 251° |
| 2026-04-22 20:44 | 51.23091 | -0.83650 | 17430 ft | 384 kts | 252° |
| 2026-04-22 20:44 | 51.22292 | -0.87728 | 18100 ft | 387 kts | 252° |
| 2026-04-22 20:44 | 51.21451 | -0.91813 | 18764 ft | 389 kts | 248° |
| 2026-04-22 20:44 | 51.20236 | -0.95688 | 19315 ft | 393 kts | 238° |
| 2026-04-22 20:45 | 51.18578 | -0.99166 | 19903 ft | 396 kts | 227° |
| 2026-04-22 20:45 | 51.16608 | -1.02254 | 20525 ft | 398 kts | 224° |
| 2026-04-22 20:45 | 51.14596 | -1.05334 | 21081 ft | 402 kts | 225° |
| 2026-04-22 20:45 | 51.12570 | -1.08443 | 21305 ft | 404 kts | 225° |
| 2026-04-22 20:46 | 51.08460 | -1.14760 | 21334 ft | 414 kts | 225° |
| 2026-04-22 20:46 | 51.06382 | -1.17949 | 21332 ft | 416 kts | 225° |
| 2026-04-22 20:46 | 51.04325 | -1.21096 | 21329 ft | 415 kts | 225° |
| 2026-04-22 20:47 | 51.02246 | -1.24277 | 21327 ft | 415 kts | 225° |
| 2026-04-22 20:47 | 51.00155 | -1.27464 | 21332 ft | 416 kts | 225° |
| 2026-04-22 20:47 | 50.98068 | -1.30638 | 21323 ft | 415 kts | 224° |
| 2026-04-22 20:47 | 50.95915 | -1.33680 | 21328 ft | 416 kts | 218° |
| 2026-04-22 20:48 | 50.93479 | -1.36162 | 21331 ft | 417 kts | 208° |
| 2026-04-22 20:48 | 50.90888 | -1.38241 | 21342 ft | 418 kts | 207° |
| 2026-04-22 20:48 | 50.88293 | -1.40308 | 21343 ft | 417 kts | 207° |
| 2026-04-22 20:48 | 50.85695 | -1.42370 | 21337 ft | 417 kts | 207° |
| 2026-04-22 20:49 | 50.83102 | -1.44425 | 21348 ft | 416 kts | 207° |
| 2026-04-22 20:49 | 50.80516 | -1.46478 | 21351 ft | 415 kts | 207° |
| 2026-04-22 20:49 | 50.78806 | -1.47833 | 21351 ft | 415 kts | 207° |
| 2026-04-22 20:49 | 50.76226 | -1.49878 | 21345 ft | 415 kts | 207° |
| 2026-04-22 20:50 | 50.73646 | -1.51925 | 21332 ft | 414 kts | 207° |
| 2026-04-22 20:50 | 50.70238 | -1.54633 | 21329 ft | 414 kts | 207° |
| 2026-04-22 20:50 | 50.67667 | -1.56674 | 21322 ft | 414 kts | 207° |
| 2026-04-22 20:50 | 50.65930 | -1.58049 | 21323 ft | 413 kts | 207° |
| 2026-04-22 20:51 | 50.63359 | -1.60076 | 21319 ft | 413 kts | 207° |
| 2026-04-22 20:51 | 50.60785 | -1.62101 | 21317 ft | 413 kts | 207° |
| 2026-04-22 20:51 | 50.58215 | -1.64123 | 21311 ft | 413 kts | 207° |
| 2026-04-22 20:51 | 50.55646 | -1.66142 | 21313 ft | 413 kts | 207° |
| 2026-04-22 20:52 | 50.53072 | -1.68162 | 21311 ft | 413 kts | 207° |
| 2026-04-22 20:52 | 50.50540 | -1.70148 | 21310 ft | 413 kts | 207° |
| 2026-04-22 20:52 | 50.47964 | -1.72167 | 21308 ft | 413 kts | 207° |
| 2026-04-22 20:52 | 50.45392 | -1.74183 | 21308 ft | 413 kts | 207° |
| 2026-04-22 20:53 | 50.42816 | -1.76197 | 21311 ft | 413 kts | 207° |
| 2026-04-22 20:53 | 50.40244 | -1.78202 | 21308 ft | 413 kts | 207° |
| 2026-04-22 20:53 | 50.37673 | -1.80204 | 21308 ft | 413 kts | 207° |
| 2026-04-22 20:53 | 50.35098 | -1.82208 | 21308 ft | 413 kts | 207° |
| 2026-04-22 20:54 | 50.32524 | -1.84207 | 21311 ft | 413 kts | 207° |
| 2026-04-22 20:54 | 50.29956 | -1.86200 | 21310 ft | 412 kts | 206° |
| 2026-04-22 20:54 | 50.27395 | -1.88185 | 21314 ft | 411 kts | 206° |
| 2026-04-22 20:54 | 50.24839 | -1.90168 | 21315 ft | 409 kts | 206° |
| 2026-04-22 20:55 | 50.22288 | -1.92146 | 21307 ft | 409 kts | 206° |
| 2026-04-22 20:55 | 50.19746 | -1.94112 | 21305 ft | 408 kts | 206° |
| 2026-04-22 20:55 | 50.17199 | -1.96079 | 21304 ft | 408 kts | 206° |
| 2026-04-22 20:55 | 50.14659 | -1.98040 | 21302 ft | 407 kts | 206° |
| 2026-04-22 20:56 | 50.12119 | -2.00002 | 21293 ft | 407 kts | 206° |
| 2026-04-22 20:56 | 50.09579 | -2.01960 | 21289 ft | 407 kts | 206° |
| 2026-04-22 20:56 | 50.07039 | -2.03909 | 21287 ft | 407 kts | 206° |
| 2026-04-22 20:56 | 50.04498 | -2.05856 | 21285 ft | 407 kts | 206° |
| 2026-04-22 20:57 | 50.01954 | -2.07805 | 21282 ft | 407 kts | 206° |
| 2026-04-22 20:57 | 49.99469 | -2.09895 | 21238 ft | 404 kts | 213° |
| 2026-04-22 20:57 | 49.97275 | -2.12513 | 20983 ft | 393 kts | 223° |
| 2026-04-22 20:57 | 49.95454 | -2.15521 | 20728 ft | 383 kts | 229° |
| 2026-04-22 20:58 | 49.93713 | -2.18594 | 20361 ft | 376 kts | 228° |
| 2026-04-22 20:58 | 49.91983 | -2.21628 | 19857 ft | 374 kts | 228° |
| 2026-04-22 20:58 | 49.90263 | -2.24631 | 19353 ft | 372 kts | 228° |
| 2026-04-22 20:58 | 49.88547 | -2.27614 | 18846 ft | 370 kts | 227° |
| 2026-04-22 20:59 | 49.86834 | -2.30592 | 18294 ft | 369 kts | 227° |
| 2026-04-22 20:59 | 49.85132 | -2.33548 | 17754 ft | 366 kts | 227° |
| 2026-04-22 20:59 | 49.83445 | -2.36480 | 17235 ft | 363 kts | 227° |
| 2026-04-22 20:59 | 49.81766 | -2.39396 | 16313 ft | 361 kts | 227° |
| 2026-04-22 21:00 | 49.80105 | -2.42281 | 15370 ft | 357 kts | 227° |
| 2026-04-22 21:00 | 49.78459 | -2.45132 | 14458 ft | 353 kts | 227° |
| 2026-04-22 21:00 | 49.76846 | -2.47920 | 13931 ft | 338 kts | 228° |
| 2026-04-22 21:00 | 49.75329 | -2.50539 | 13657 ft | 317 kts | 227° |
| 2026-04-22 21:01 | 49.73875 | -2.53045 | 13066 ft | 310 kts | 227° |
| 2026-04-22 21:01 | 49.72441 | -2.55512 | 12394 ft | 307 kts | 227° |
| 2026-04-22 21:01 | 49.71022 | -2.57959 | 11725 ft | 305 kts | 227° |
| 2026-04-22 21:01 | 49.69604 | -2.60381 | 11052 ft | 303 kts | 225° |
| 2026-04-22 21:02 | 49.68084 | -2.62620 | 10409 ft | 301 kts | 220° |
| 2026-04-22 21:02 | 49.66496 | -2.64708 | 9745 ft | 299 kts | 217° |
| 2026-04-22 21:02 | 49.64885 | -2.66722 | 9083 ft | 297 kts | 217° |
| 2026-04-22 21:02 | 49.63504 | -2.69023 | 8539 ft | 292 kts | 236° |
| 2026-04-22 21:03 | 49.62488 | -2.71666 | 7981 ft | 288 kts | 239° |
| 2026-04-22 21:03 | 49.61517 | -2.74382 | 7255 ft | 291 kts | 239° |
| 2026-04-22 21:03 | 49.60547 | -2.77156 | 6462 ft | 297 kts | 239° |
| 2026-04-22 21:03 | 49.59580 | -2.79992 | 5649 ft | 300 kts | 239° |
| 2026-04-22 21:04 | 49.58618 | -2.82854 | 4859 ft | 301 kts | 240° |
| 2026-04-22 21:04 | 49.57604 | -2.85663 | 4069 ft | 295 kts | 229° |
| 2026-04-22 21:04 | 49.56209 | -2.87749 | 3892 ft | 266 kts | 208° |
| 2026-04-22 21:04 | 49.54636 | -2.88911 | 3774 ft | 238 kts | 190° |
| 2026-04-22 21:05 | 49.53095 | -2.89241 | 3637 ft | 212 kts | 173° |
| 2026-04-22 21:05 | 49.51720 | -2.88932 | 3517 ft | 191 kts | 159° |
| 2026-04-22 21:05 | 49.50534 | -2.88174 | 3388 ft | 180 kts | 149° |
| 2026-04-22 21:05 | 49.49418 | -2.87312 | 3259 ft | 183 kts | 149° |
| 2026-04-22 21:06 | 49.48269 | -2.86429 | 3141 ft | 185 kts | 149° |
| 2026-04-22 21:06 | 49.47123 | -2.85550 | 3001 ft | 184 kts | 149° |
| 2026-04-22 21:06 | 49.45980 | -2.84673 | 2883 ft | 183 kts | 149° |
| 2026-04-22 21:06 | 49.44842 | -2.83800 | 2756 ft | 182 kts | 148° |
| 2026-04-22 21:07 | 49.43848 | -2.82667 | 2622 ft | 174 kts | 130° |
| 2026-04-22 21:07 | 49.43214 | -2.81158 | 2498 ft | 164 kts | 112° |
| 2026-04-22 21:07 | 49.42963 | -2.79522 | 2381 ft | 152 kts | 97° |
| 2026-04-22 21:07 | 49.42988 | -2.77972 | 2277 ft | 143 kts | 92° |
| 2026-04-22 21:08 | 49.43032 | -2.76464 | 2195 ft | 140 kts | 93° |
| 2026-04-22 21:08 | 49.43075 | -2.74985 | 2052 ft | 137 kts | 93° |
| 2026-04-22 21:08 | 49.43118 | -2.73517 | 1887 ft | 135 kts | 93° |
| 2026-04-22 21:08 | 49.43158 | -2.72113 | 1732 ft | 130 kts | 92° |
| 2026-04-22 21:09 | 49.43198 | -2.70743 | 1543 ft | 127 kts | 92° |
| 2026-04-22 21:09 | 49.43236 | -2.69399 | 1369 ft | 125 kts | 91° |
| 2026-04-22 21:09 | 49.43274 | -2.68065 | 1197 ft | 126 kts | 89° |
| 2026-04-22 21:09 | 49.43313 | -2.66716 | 1012 ft | 127 kts | 89° |
| 2026-04-22 21:10 | 49.43351 | -2.65372 | 839 ft | 125 kts | 89° |
| 2026-04-22 21:10 | 49.43391 | -2.64036 | 679 ft | 126 kts | 88° |
| 2026-04-22 21:10 | 49.43422 | -2.62691 | 485 ft | 126 kts | 85° |
| 2026-04-22 21:10 | 49.43464 | -2.61366 | 366 ft | 123 kts | 86° |
| 2026-04-22 21:11 | 49.43498 | -2.60152 | 314 ft | 76 kts | 87° |
| 2026-04-22 21:11 | 49.43515 | -2.59581 | 331 ft | 39 kts | 88° |
| 2026-04-22 21:11 | 49.43522 | -2.59292 | 335 ft | 19 kts | 89° |
| 2026-04-22 21:11 | 49.43451 | -2.59197 | 334 ft | 12 kts | 180° |
| 2026-04-22 21:12 | 49.43402 | -2.59200 | 331 ft | 7 kts | 189° |
| 2026-04-22 21:12 | 49.43372 | -2.59262 | 333 ft | 9 kts | 262° |
| 2026-04-22 21:12 | 49.43369 | -2.59373 | 334 ft | 12 kts | 268° |
| 2026-04-22 21:12 | 49.43366 | -2.59518 | 330 ft | 11 kts | 267° |
| 2026-04-22 21:13 | 49.43363 | -2.59604 | 329 ft | 4 kts | 267° |
| 2026-04-22 21:13 | 49.43335 | -2.59624 | 330 ft | 7 kts | 171° |
| 2026-04-22 21:13 | 49.43281 | -2.59621 | 329 ft | 6 kts | 179° |
| 2026-04-22 21:13 | 49.43261 | -2.59621 | 328 ft | 0 kts | 179° |
| 2026-04-22 21:14 | 49.43254 | -2.59621 | 328 ft | 0 kts | 178° |